EZY982 EGJJ-EGMC
Flight info
| Callsign | EZY982 |
|---|---|
| Flight time | 0h 55m |
| Altitude | 19000 |
| Route | BENIX G27 NEVIL |
| Aircraft | A320/M-SDE2E3FGHIJ1RWXYZ/LB1 |
Departure
| Time | 2026-05-07 19:08 |
|---|---|
| Airport | Jersey Airport (EGJJ) |
Arrival
| Time | 2026-05-07 20:04 |
|---|---|
| Airport | London Southend Airport (EGMC) |
| Time | Latitude | Longitude | Altitude | Speed | Heading |
|---|---|---|---|---|---|
| 2026-05-07 18:30 | 49.20562 | -2.19637 | 284 ft | 0 kts | 159° |
| 2026-05-07 18:59 | 49.20575 | -2.19645 | 284 ft | 3 kts | 159° |
| 2026-05-07 18:59 | 49.20594 | -2.19656 | 297 ft | 3 kts | 159° |
| 2026-05-07 18:59 | 49.20612 | -2.19667 | 284 ft | 3 kts | 165° |
| 2026-05-07 18:59 | 49.20632 | -2.19672 | 289 ft | 3 kts | 187° |
| 2026-05-07 19:00 | 49.20644 | -2.19669 | 284 ft | 2 kts | 207° |
| 2026-05-07 19:00 | 49.20648 | -2.19665 | 284 ft | 0 kts | 210° |
| 2026-05-07 19:04 | 49.20643 | -2.19670 | 284 ft | 5 kts | 210° |
| 2026-05-07 19:04 | 49.20615 | -2.19737 | 284 ft | 9 kts | 259° |
| 2026-05-07 19:05 | 49.20606 | -2.19843 | 284 ft | 11 kts | 263° |
| 2026-05-07 19:05 | 49.20580 | -2.19928 | 286 ft | 7 kts | 203° |
| 2026-05-07 19:05 | 49.20523 | -2.19951 | 284 ft | 10 kts | 225° |
| 2026-05-07 19:05 | 49.20531 | -2.20057 | 284 ft | 11 kts | 287° |
| 2026-05-07 19:06 | 49.20556 | -2.20181 | 284 ft | 13 kts | 287° |
| 2026-05-07 19:06 | 49.20615 | -2.20493 | 284 ft | 12 kts | 285° |
| 2026-05-07 19:06 | 49.20626 | -2.20604 | 284 ft | 11 kts | 273° |
| 2026-05-07 19:07 | 49.20650 | -2.20695 | 284 ft | 9 kts | 327° |
| 2026-05-07 19:07 | 49.20700 | -2.20672 | 285 ft | 8 kts | 54° |
| 2026-05-07 19:07 | 49.20710 | -2.20610 | 283 ft | 0 kts | 82° |
| 2026-05-07 19:07 | 49.20716 | -2.20536 | 283 ft | 37 kts | 83° |
| 2026-05-07 19:08 | 49.20786 | -2.19691 | 285 ft | 119 kts | 83° |
| 2026-05-07 19:08 | 49.20914 | -2.18123 | 454 ft | 164 kts | 86° |
| 2026-05-07 19:08 | 49.21081 | -2.16366 | 1342 ft | 166 kts | 84° |
| 2026-05-07 19:08 | 49.21240 | -2.14594 | 2062 ft | 174 kts | 86° |
| 2026-05-07 19:09 | 49.21409 | -2.12633 | 2429 ft | 198 kts | 86° |
| 2026-05-07 19:09 | 49.21600 | -2.10410 | 2907 ft | 223 kts | 85° |
| 2026-05-07 19:09 | 49.21812 | -2.07932 | 3401 ft | 247 kts | 85° |
| 2026-05-07 19:09 | 49.22131 | -2.05261 | 4132 ft | 263 kts | 73° |
| 2026-05-07 19:10 | 49.23123 | -2.02853 | 5024 ft | 275 kts | 50° |
| 2026-05-07 19:10 | 49.24419 | -2.00675 | 5984 ft | 279 kts | 50° |
| 2026-05-07 19:10 | 49.25728 | -1.98480 | 6902 ft | 283 kts | 50° |
| 2026-05-07 19:10 | 49.27083 | -1.96203 | 7805 ft | 288 kts | 50° |
| 2026-05-07 19:11 | 49.28418 | -1.93950 | 8691 ft | 292 kts | 50° |
| 2026-05-07 19:11 | 49.29810 | -1.91590 | 9601 ft | 297 kts | 50° |
| 2026-05-07 19:11 | 49.31192 | -1.89243 | 10293 ft | 309 kts | 49° |
| 2026-05-07 19:11 | 49.32680 | -1.86704 | 10629 ft | 331 kts | 49° |
| 2026-05-07 19:12 | 49.34241 | -1.84043 | 11303 ft | 339 kts | 49° |
| 2026-05-07 19:12 | 49.35827 | -1.81339 | 12093 ft | 344 kts | 49° |
| 2026-05-07 19:12 | 49.37441 | -1.78590 | 12900 ft | 348 kts | 48° |
| 2026-05-07 19:12 | 49.39070 | -1.75810 | 13694 ft | 353 kts | 48° |
| 2026-05-07 19:13 | 49.40721 | -1.72994 | 14400 ft | 356 kts | 48° |
| 2026-05-07 19:13 | 49.42387 | -1.70150 | 15099 ft | 360 kts | 48° |
| 2026-05-07 19:13 | 49.44070 | -1.67273 | 15779 ft | 364 kts | 49° |
| 2026-05-07 19:13 | 49.45771 | -1.64360 | 16463 ft | 368 kts | 49° |
| 2026-05-07 19:14 | 49.47485 | -1.61412 | 17139 ft | 372 kts | 49° |
| 2026-05-07 19:14 | 49.49215 | -1.58427 | 17816 ft | 376 kts | 49° |
| 2026-05-07 19:14 | 49.50966 | -1.55404 | 18428 ft | 381 kts | 49° |
| 2026-05-07 19:14 | 49.52739 | -1.52340 | 18876 ft | 385 kts | 49° |
| 2026-05-07 19:15 | 49.54521 | -1.49260 | 18994 ft | 384 kts | 49° |
| 2026-05-07 19:15 | 49.56275 | -1.46278 | 19029 ft | 369 kts | 47° |
| 2026-05-07 19:15 | 49.58006 | -1.43421 | 19028 ft | 364 kts | 47° |
| 2026-05-07 19:15 | 49.59744 | -1.40594 | 19029 ft | 362 kts | 47° |
| 2026-05-07 19:16 | 49.61479 | -1.37780 | 19028 ft | 362 kts | 47° |
| 2026-05-07 19:16 | 49.63208 | -1.34966 | 19028 ft | 362 kts | 47° |
| 2026-05-07 19:16 | 49.64934 | -1.32139 | 19028 ft | 361 kts | 47° |
| 2026-05-07 19:16 | 49.66653 | -1.29310 | 19031 ft | 361 kts | 47° |
| 2026-05-07 19:17 | 49.68369 | -1.26478 | 19030 ft | 361 kts | 47° |
| 2026-05-07 19:17 | 49.70085 | -1.23640 | 19031 ft | 361 kts | 47° |
| 2026-05-07 19:17 | 49.71799 | -1.20802 | 19032 ft | 361 kts | 47° |
| 2026-05-07 19:17 | 49.73511 | -1.17964 | 19035 ft | 361 kts | 47° |
| 2026-05-07 19:18 | 49.75223 | -1.15124 | 19034 ft | 361 kts | 47° |
| 2026-05-07 19:18 | 49.76935 | -1.12282 | 19035 ft | 361 kts | 47° |
| 2026-05-07 19:18 | 49.78563 | -1.09326 | 19038 ft | 361 kts | 55° |
| 2026-05-07 19:18 | 49.79805 | -1.05967 | 19041 ft | 360 kts | 67° |
| 2026-05-07 19:19 | 49.80650 | -1.02333 | 19039 ft | 359 kts | 73° |
| 2026-05-07 19:19 | 49.81435 | -0.98666 | 19040 ft | 359 kts | 72° |
| 2026-05-07 19:19 | 49.82228 | -0.94998 | 19037 ft | 359 kts | 72° |
| 2026-05-07 19:19 | 49.83023 | -0.91332 | 19042 ft | 359 kts | 72° |
| 2026-05-07 19:20 | 49.83821 | -0.87661 | 19044 ft | 359 kts | 72° |
| 2026-05-07 19:20 | 49.84617 | -0.83989 | 19043 ft | 359 kts | 72° |
| 2026-05-07 19:20 | 49.85408 | -0.80321 | 19047 ft | 359 kts | 72° |
| 2026-05-07 19:20 | 49.86198 | -0.76647 | 19049 ft | 359 kts | 72° |
| 2026-05-07 19:21 | 49.86989 | -0.72971 | 19051 ft | 359 kts | 72° |
| 2026-05-07 19:21 | 49.87776 | -0.69302 | 19051 ft | 359 kts | 72° |
| 2026-05-07 19:21 | 49.88562 | -0.65625 | 19051 ft | 359 kts | 72° |
| 2026-05-07 19:21 | 49.89352 | -0.61923 | 19051 ft | 359 kts | 72° |
| 2026-05-07 19:22 | 49.90129 | -0.58270 | 19052 ft | 359 kts | 72° |
| 2026-05-07 19:22 | 49.90911 | -0.54588 | 19053 ft | 359 kts | 72° |
| 2026-05-07 19:22 | 49.91694 | -0.50905 | 19054 ft | 359 kts | 72° |
| 2026-05-07 19:22 | 49.92716 | -0.47385 | 19055 ft | 360 kts | 59° |
| 2026-05-07 19:23 | 49.94188 | -0.44242 | 19058 ft | 360 kts | 47° |
| 2026-05-07 19:23 | 49.96029 | -0.41632 | 19058 ft | 359 kts | 37° |
| 2026-05-07 19:23 | 49.98009 | -0.39259 | 19054 ft | 359 kts | 37° |
| 2026-05-07 19:23 | 49.99978 | -0.36882 | 19055 ft | 359 kts | 37° |
| 2026-05-07 19:24 | 50.01950 | -0.34489 | 19058 ft | 359 kts | 37° |
| 2026-05-07 19:24 | 50.03916 | -0.32095 | 19058 ft | 359 kts | 37° |
| 2026-05-07 19:24 | 50.05883 | -0.29694 | 19059 ft | 359 kts | 37° |
| 2026-05-07 19:24 | 50.07846 | -0.27299 | 19059 ft | 359 kts | 37° |
| 2026-05-07 19:25 | 50.09813 | -0.24898 | 19062 ft | 359 kts | 37° |
| 2026-05-07 19:25 | 50.11776 | -0.22500 | 19061 ft | 359 kts | 37° |
| 2026-05-07 19:25 | 50.13729 | -0.20078 | 19059 ft | 359 kts | 41° |
| 2026-05-07 19:25 | 50.15440 | -0.17258 | 19063 ft | 359 kts | 52° |
| 2026-05-07 19:26 | 50.16814 | -0.14011 | 19062 ft | 359 kts | 58° |
| 2026-05-07 19:26 | 50.18128 | -0.10697 | 19062 ft | 359 kts | 58° |
| 2026-05-07 19:26 | 50.19441 | -0.07393 | 19064 ft | 359 kts | 58° |
| 2026-05-07 19:26 | 50.20756 | -0.04082 | 19062 ft | 359 kts | 58° |
| 2026-05-07 19:27 | 50.22069 | -0.00771 | 19063 ft | 359 kts | 58° |
| 2026-05-07 19:27 | 50.23381 | 0.02543 | 19061 ft | 359 kts | 58° |
| 2026-05-07 19:27 | 50.24690 | 0.05849 | 19067 ft | 359 kts | 58° |
| 2026-05-07 19:27 | 50.26003 | 0.09174 | 19065 ft | 359 kts | 58° |
| 2026-05-07 19:28 | 50.27315 | 0.12504 | 18795 ft | 361 kts | 58° |
| 2026-05-07 19:28 | 50.28633 | 0.15859 | 18344 ft | 361 kts | 58° |
| 2026-05-07 19:28 | 50.29922 | 0.19144 | 18258 ft | 348 kts | 58° |
| 2026-05-07 19:28 | 50.31164 | 0.22309 | 18179 ft | 336 kts | 58° |
| 2026-05-07 19:29 | 50.32365 | 0.25368 | 18083 ft | 324 kts | 58° |
| 2026-05-07 19:29 | 50.33525 | 0.28331 | 18013 ft | 314 kts | 58° |
| 2026-05-07 19:29 | 50.34660 | 0.31233 | 17936 ft | 313 kts | 58° |
| 2026-05-07 19:29 | 50.35796 | 0.34145 | 17863 ft | 313 kts | 58° |
| 2026-05-07 19:30 | 50.36931 | 0.37053 | 17786 ft | 313 kts | 58° |
| 2026-05-07 19:30 | 50.38064 | 0.39961 | 17714 ft | 312 kts | 58° |
| 2026-05-07 19:30 | 50.39192 | 0.42863 | 17631 ft | 312 kts | 59° |
| 2026-05-07 19:30 | 50.40321 | 0.45766 | 17568 ft | 311 kts | 58° |
| 2026-05-07 19:31 | 50.41448 | 0.48663 | 17494 ft | 311 kts | 58° |
| 2026-05-07 19:31 | 50.42599 | 0.51531 | 17421 ft | 311 kts | 57° |
| 2026-05-07 19:31 | 50.43775 | 0.54374 | 17348 ft | 310 kts | 57° |
| 2026-05-07 19:31 | 50.44958 | 0.57200 | 17274 ft | 310 kts | 57° |
| 2026-05-07 19:32 | 50.46139 | 0.60027 | 17206 ft | 309 kts | 57° |
| 2026-05-07 19:32 | 50.47315 | 0.62856 | 17129 ft | 309 kts | 57° |
| 2026-05-07 19:32 | 50.48482 | 0.65681 | 17062 ft | 309 kts | 57° |
| 2026-05-07 19:32 | 50.49647 | 0.68509 | 16989 ft | 308 kts | 57° |
| 2026-05-07 19:33 | 50.50807 | 0.71335 | 16918 ft | 308 kts | 57° |
| 2026-05-07 19:33 | 50.51965 | 0.74158 | 16844 ft | 307 kts | 57° |
| 2026-05-07 19:33 | 50.53122 | 0.76978 | 16773 ft | 307 kts | 57° |
| 2026-05-07 19:33 | 50.54276 | 0.79796 | 16704 ft | 306 kts | 57° |
| 2026-05-07 19:34 | 50.55426 | 0.82616 | 16632 ft | 306 kts | 57° |
| 2026-05-07 19:34 | 50.56573 | 0.85429 | 16563 ft | 306 kts | 57° |
| 2026-05-07 19:34 | 50.57720 | 0.88243 | 16491 ft | 305 kts | 57° |
| 2026-05-07 19:34 | 50.59003 | 0.90992 | 16423 ft | 321 kts | 43° |
| 2026-05-07 19:35 | 50.60875 | 0.92907 | 16347 ft | 324 kts | 19° |
| 2026-05-07 19:35 | 50.63075 | 0.93491 | 16273 ft | 322 kts | 356° |
| 2026-05-07 19:35 | 50.65304 | 0.93213 | 16197 ft | 322 kts | 352° |
| 2026-05-07 19:35 | 50.67533 | 0.92825 | 16123 ft | 322 kts | 352° |
| 2026-05-07 19:36 | 50.69757 | 0.92425 | 16047 ft | 322 kts | 352° |
| 2026-05-07 19:36 | 50.71978 | 0.92020 | 15976 ft | 321 kts | 352° |
| 2026-05-07 19:36 | 50.74198 | 0.91613 | 15898 ft | 321 kts | 352° |
| 2026-05-07 19:36 | 50.76415 | 0.91205 | 15826 ft | 321 kts | 352° |
| 2026-05-07 19:37 | 50.78633 | 0.90794 | 15744 ft | 321 kts | 352° |
| 2026-05-07 19:37 | 50.80848 | 0.90382 | 15681 ft | 320 kts | 352° |
| 2026-05-07 19:37 | 50.83057 | 0.89970 | 15511 ft | 319 kts | 352° |
| 2026-05-07 19:37 | 50.85254 | 0.89560 | 15175 ft | 317 kts | 352° |
| 2026-05-07 19:38 | 50.87443 | 0.89146 | 14839 ft | 316 kts | 352° |
| 2026-05-07 19:38 | 50.89624 | 0.88727 | 14517 ft | 315 kts | 352° |
| 2026-05-07 19:38 | 50.91792 | 0.88308 | 14183 ft | 314 kts | 352° |
| 2026-05-07 19:38 | 50.93954 | 0.87884 | 13869 ft | 312 kts | 352° |
| 2026-05-07 19:39 | 50.96108 | 0.87457 | 13522 ft | 311 kts | 352° |
| 2026-05-07 19:39 | 50.98247 | 0.87033 | 13169 ft | 309 kts | 352° |
| 2026-05-07 19:39 | 51.00376 | 0.86608 | 12823 ft | 307 kts | 352° |
| 2026-05-07 19:39 | 51.01806 | 0.86324 | 12594 ft | 306 kts | 352° |
| 2026-05-07 19:40 | 51.04594 | 0.85768 | 12146 ft | 304 kts | 352° |
| 2026-05-07 19:40 | 51.06687 | 0.85348 | 11798 ft | 302 kts | 352° |
| 2026-05-07 19:40 | 51.08762 | 0.84934 | 11459 ft | 300 kts | 352° |
| 2026-05-07 19:40 | 51.10785 | 0.84213 | 11117 ft | 296 kts | 334° |
| 2026-05-07 19:41 | 51.11979 | 0.83108 | 10885 ft | 293 kts | 324° |
| 2026-05-07 19:41 | 51.13631 | 0.81216 | 10529 ft | 292 kts | 322° |
| 2026-05-07 19:41 | 51.15256 | 0.79294 | 10189 ft | 290 kts | 321° |
| 2026-05-07 19:41 | 51.16867 | 0.77379 | 9723 ft | 288 kts | 322° |
| 2026-05-07 19:42 | 51.18470 | 0.75470 | 9332 ft | 287 kts | 321° |
| 2026-05-07 19:42 | 51.20059 | 0.73570 | 8932 ft | 285 kts | 321° |
| 2026-05-07 19:42 | 51.21644 | 0.71671 | 8530 ft | 284 kts | 322° |
| 2026-05-07 19:42 | 51.23214 | 0.69782 | 8136 ft | 282 kts | 321° |
| 2026-05-07 19:43 | 51.24775 | 0.67894 | 7741 ft | 281 kts | 322° |
| 2026-05-07 19:43 | 51.26317 | 0.66008 | 7359 ft | 279 kts | 321° |
| 2026-05-07 19:43 | 51.27848 | 0.64113 | 6992 ft | 277 kts | 322° |
| 2026-05-07 19:43 | 51.29357 | 0.62225 | 6614 ft | 275 kts | 322° |
| 2026-05-07 19:44 | 51.30832 | 0.60358 | 6239 ft | 273 kts | 321° |
| 2026-05-07 19:44 | 51.32332 | 0.58438 | 5837 ft | 271 kts | 321° |
| 2026-05-07 19:44 | 51.33795 | 0.56556 | 5428 ft | 269 kts | 321° |
| 2026-05-07 19:44 | 51.35248 | 0.54680 | 5049 ft | 267 kts | 321° |
| 2026-05-07 19:45 | 51.36690 | 0.52814 | 4665 ft | 265 kts | 321° |
| 2026-05-07 19:45 | 51.38117 | 0.50964 | 4252 ft | 264 kts | 321° |
| 2026-05-07 19:45 | 51.39543 | 0.49122 | 4039 ft | 262 kts | 321° |
| 2026-05-07 19:45 | 51.40981 | 0.47309 | 4012 ft | 264 kts | 326° |
| 2026-05-07 19:46 | 51.42671 | 0.46260 | 4010 ft | 263 kts | 352° |
| 2026-05-07 19:46 | 51.44478 | 0.46256 | 4004 ft | 252 kts | 10° |
| 2026-05-07 19:46 | 51.46100 | 0.47049 | 3905 ft | 239 kts | 26° |
| 2026-05-07 19:46 | 51.47466 | 0.48490 | 3629 ft | 235 kts | 43° |
| 2026-05-07 19:47 | 51.48527 | 0.50477 | 3289 ft | 235 kts | 55° |
| 2026-05-07 19:47 | 51.49476 | 0.52574 | 2911 ft | 228 kts | 56° |
| 2026-05-07 19:47 | 51.50385 | 0.54584 | 2554 ft | 216 kts | 56° |
| 2026-05-07 19:47 | 51.51235 | 0.56460 | 2218 ft | 200 kts | 57° |
| 2026-05-07 19:48 | 51.52017 | 0.58186 | 1927 ft | 182 kts | 57° |
| 2026-05-07 19:48 | 51.52728 | 0.59757 | 1642 ft | 166 kts | 57° |
| 2026-05-07 19:48 | 51.53371 | 0.61180 | 1399 ft | 150 kts | 58° |
| 2026-05-07 19:48 | 51.53962 | 0.62492 | 1150 ft | 140 kts | 58° |
| 2026-05-07 19:49 | 51.54527 | 0.63741 | 911 ft | 136 kts | 56° |
| 2026-05-07 19:49 | 51.55085 | 0.64941 | 682 ft | 132 kts | 56° |
| 2026-05-07 19:49 | 51.55615 | 0.66135 | 480 ft | 131 kts | 58° |
| 2026-05-07 19:49 | 51.56138 | 0.67314 | 293 ft | 130 kts | 56° |
| 2026-05-07 19:50 | 51.56663 | 0.68486 | 67 ft | 129 kts | 57° |
| 2026-05-07 19:50 | 51.57159 | 0.69594 | 69 ft | 127 kts | 55° |
| 2026-05-07 19:50 | 51.57731 | 0.70863 | 538 ft | 151 kts | 57° |
| 2026-05-07 19:50 | 51.58420 | 0.72325 | 1109 ft | 178 kts | 54° |
| 2026-05-07 19:51 | 51.59247 | 0.73982 | 1617 ft | 203 kts | 54° |
| 2026-05-07 19:51 | 51.59994 | 0.76034 | 2112 ft | 227 kts | 78° |
| 2026-05-07 19:51 | 51.59984 | 0.78569 | 2576 ft | 218 kts | 108° |
| 2026-05-07 19:51 | 51.59213 | 0.80417 | 2819 ft | 188 kts | 146° |
| 2026-05-07 19:52 | 51.58020 | 0.80984 | 3000 ft | 183 kts | 184° |
| 2026-05-07 19:52 | 51.56764 | 0.80569 | 3072 ft | 186 kts | 186° |
| 2026-05-07 19:52 | 51.55448 | 0.80387 | 3033 ft | 201 kts | 182° |
| 2026-05-07 19:52 | 51.54017 | 0.80266 | 3022 ft | 209 kts | 181° |
| 2026-05-07 19:53 | 51.52564 | 0.80154 | 3015 ft | 210 kts | 181° |
| 2026-05-07 19:53 | 51.51102 | 0.80044 | 3014 ft | 210 kts | 181° |
| 2026-05-07 19:53 | 51.49641 | 0.79932 | 3007 ft | 210 kts | 181° |
| 2026-05-07 19:53 | 51.48182 | 0.79818 | 3010 ft | 210 kts | 181° |
| 2026-05-07 19:54 | 51.46718 | 0.79704 | 3010 ft | 211 kts | 181° |
| 2026-05-07 19:54 | 51.45298 | 0.79208 | 3007 ft | 212 kts | 208° |
| 2026-05-07 19:54 | 51.44287 | 0.77527 | 3011 ft | 215 kts | 242° |
| 2026-05-07 19:54 | 51.43728 | 0.75293 | 3010 ft | 217 kts | 250° |
| 2026-05-07 19:55 | 51.43260 | 0.72997 | 3007 ft | 217 kts | 251° |
| 2026-05-07 19:55 | 51.42805 | 0.70689 | 3011 ft | 217 kts | 251° |
| 2026-05-07 19:55 | 51.42357 | 0.68390 | 3010 ft | 216 kts | 251° |
| 2026-05-07 19:55 | 51.41910 | 0.66087 | 3010 ft | 216 kts | 251° |
| 2026-05-07 19:56 | 51.41465 | 0.63786 | 3010 ft | 216 kts | 252° |
| 2026-05-07 19:56 | 51.41026 | 0.61529 | 3010 ft | 213 kts | 251° |
| 2026-05-07 19:56 | 51.40593 | 0.59297 | 3005 ft | 202 kts | 251° |
| 2026-05-07 19:56 | 51.40184 | 0.57177 | 3007 ft | 197 kts | 251° |
| 2026-05-07 19:57 | 51.39782 | 0.55093 | 3009 ft | 195 kts | 251° |
| 2026-05-07 19:57 | 51.39382 | 0.53018 | 3008 ft | 195 kts | 251° |
| 2026-05-07 19:57 | 51.38982 | 0.50946 | 3009 ft | 195 kts | 251° |
| 2026-05-07 19:57 | 51.38657 | 0.48845 | 2863 ft | 196 kts | 269° |
| 2026-05-07 19:58 | 51.39047 | 0.46799 | 2874 ft | 197 kts | 308° |
| 2026-05-07 19:58 | 51.40148 | 0.45564 | 2890 ft | 196 kts | 342° |
| 2026-05-07 19:58 | 51.41481 | 0.45047 | 3016 ft | 197 kts | 350° |
| 2026-05-07 19:58 | 51.42808 | 0.44673 | 3028 ft | 186 kts | 351° |
| 2026-05-07 19:59 | 51.44019 | 0.44400 | 3001 ft | 171 kts | 2° |
| 2026-05-07 19:59 | 51.45162 | 0.44763 | 3017 ft | 167 kts | 18° |
| 2026-05-07 19:59 | 51.46198 | 0.45603 | 3008 ft | 168 kts | 41° |
| 2026-05-07 19:59 | 51.46950 | 0.47008 | 3018 ft | 167 kts | 56° |
| 2026-05-07 20:00 | 51.47633 | 0.48514 | 3015 ft | 167 kts | 56° |
| 2026-05-07 20:00 | 51.48314 | 0.50014 | 3010 ft | 166 kts | 56° |
| 2026-05-07 20:00 | 51.48996 | 0.51518 | 2967 ft | 167 kts | 56° |
| 2026-05-07 20:00 | 51.49677 | 0.53021 | 2782 ft | 166 kts | 57° |
| 2026-05-07 20:01 | 51.50359 | 0.54526 | 2548 ft | 167 kts | 57° |
| 2026-05-07 20:01 | 51.51029 | 0.56007 | 2291 ft | 165 kts | 57° |
| 2026-05-07 20:01 | 51.51702 | 0.57493 | 2042 ft | 164 kts | 57° |
| 2026-05-07 20:01 | 51.52369 | 0.58967 | 1785 ft | 157 kts | 57° |
| 2026-05-07 20:02 | 51.52992 | 0.60344 | 1553 ft | 145 kts | 58° |
| 2026-05-07 20:02 | 51.53570 | 0.61625 | 1313 ft | 139 kts | 58° |
| 2026-05-07 20:02 | 51.54137 | 0.62859 | 1087 ft | 137 kts | 56° |
| 2026-05-07 20:02 | 51.54699 | 0.64071 | 832 ft | 134 kts | 57° |
| 2026-05-07 20:03 | 51.55229 | 0.65275 | 620 ft | 131 kts | 58° |
| 2026-05-07 20:03 | 51.55744 | 0.66445 | 425 ft | 130 kts | 57° |
| 2026-05-07 20:03 | 51.56265 | 0.67619 | 242 ft | 129 kts | 55° |
| 2026-05-07 20:03 | 51.56801 | 0.68794 | 60 ft | 127 kts | 57° |
| 2026-05-07 20:04 | 51.57206 | 0.69696 | 53 ft | 60 kts | 54° |
| 2026-05-07 20:04 | 51.57377 | 0.70074 | 56 ft | 38 kts | 55° |
| 2026-05-07 20:04 | 51.57510 | 0.70372 | 52 ft | 24 kts | 53° |
| 2026-05-07 20:04 | 51.57494 | 0.70479 | 54 ft | 13 kts | 186° |
| 2026-05-07 20:05 | 51.57411 | 0.70453 | 54 ft | 11 kts | 192° |
| 2026-05-07 20:05 | 51.57343 | 0.70410 | 54 ft | 10 kts | 223° |
| 2026-05-07 20:05 | 51.57291 | 0.70299 | 54 ft | 17 kts | 233° |
| 2026-05-07 20:05 | 51.57220 | 0.70232 | 54 ft | 11 kts | 184° |
| 2026-05-07 20:06 | 51.57150 | 0.70223 | 54 ft | 10 kts | 184° |
| 2026-05-07 20:06 | 51.57086 | 0.70217 | 52 ft | 9 kts | 184° |
| 2026-05-07 20:06 | 51.57029 | 0.70210 | 54 ft | 8 kts | 184° |
| 2026-05-07 20:06 | 51.56982 | 0.70204 | 54 ft | 5 kts | 185° |
| 2026-05-07 20:07 | 51.56949 | 0.70199 | 54 ft | 4 kts | 177° |
| 2026-05-07 20:07 | 51.56931 | 0.70221 | 52 ft | 2 kts | 125° |
| 2026-05-07 20:07 | 51.56928 | 0.70252 | 54 ft | 3 kts | 94° |
| 2026-05-07 20:07 | 51.56927 | 0.70276 | 54 ft | 1 kts | 96° |